Terminal Aerodrome Forecast
Issued by NWS

Home | Current Version | Previous Version | Graphics & Text | Print | Product List | Glossary On
Versions: 1 2 3 4 5 6 7 8 9 10 11 12 13 14 15 16 17
000
FTUS43 KICT 201724
TAFHUT
TAF
KHUT 201724Z 2018/2118 20013KT P6SM SCT250
     FM210200 17009KT P6SM SCT200
     FM211600 19013KT P6SM SCT040 BKN250=

USA.gov is the U.S. government's official web portal to all federal, state and local government web resources and services.